TimeMST,TemperatureF,Dew PointF,Humidity,Sea Level PressureIn,VisibilityMPH,Wind Direction,Wind SpeedMPH,Gust SpeedMPH,PrecipitationIn,Events,Conditions,WindDirDegrees,DateUTC
12:53 AM,30.9,18.0,59,30.43,6.0,Calm,Calm,-,N/A,,Haze,0,2013-12-27 07:53:00
1:53 AM,30.0,18.0,61,30.42,6.0,Calm,Calm,-,N/A,,Haze,0,2013-12-27 08:53:00
2:53 AM,28.9,17.1,61,30.42,10.0,Calm,Calm,-,N/A,,Clear,0,2013-12-27 09:53:00
3:53 AM,28.9,17.1,61,30.41,10.0,Calm,Calm,-,N/A,,Clear,0,2013-12-27 10:53:00
4:53 AM,28.0,18.0,66,30.43,10.0,Calm,Calm,-,N/A,,Clear,0,2013-12-27 11:53:00
5:53 AM,27.0,18.0,69,30.45,10.0,Calm,Calm,-,N/A,,Clear,0,2013-12-27 12:53:00
6:53 AM,27.0,18.0,69,30.46,5.0,SW,3.5,-,N/A,,Haze,230,2013-12-27 13:53:00
7:24 AM,28.0,19.0,69,30.41,1.8,West,3.5,-,N/A,,Haze,260,2013-12-27 14:24:00
7:32 AM,28.0,19.0,69,30.41,3.0,West,4.6,-,N/A,,Haze,260,2013-12-27 14:32:00
7:53 AM,28.9,19.0,67,30.47,5.0,West,3.5,-,N/A,,Haze,270,2013-12-27 14:53:00
8:53 AM,33.1,21.0,61,30.48,10.0,Calm,Calm,-,N/A,,Clear,0,2013-12-27 15:53:00
9:53 AM,37.0,21.0,52,30.48,10.0,Calm,Calm,-,N/A,,Clear,0,2013-12-27 16:53:00
10:53 AM,39.0,21.9,50,30.48,10.0,Variable,3.5,-,N/A,,Clear,0,2013-12-27 17:53:00
11:53 AM,39.0,21.9,50,30.45,10.0,North,5.8,-,N/A,,Clear,360,2013-12-27 18:53:00
12:53 PM,42.1,21.0,43,30.40,10.0,Calm,Calm,-,N/A,,Clear,0,2013-12-27 19:53:00
1:53 PM,44.1,21.0,40,30.37,10.0,North,5.8,-,N/A,,Clear,10,2013-12-27 20:53:00
2:53 PM,45.0,19.0,36,30.34,10.0,NE,5.8,-,N/A,,Clear,50,2013-12-27 21:53:00
3:53 PM,45.0,19.0,36,30.32,10.0,NNE,5.8,-,N/A,,Clear,30,2013-12-27 22:53:00
4:53 PM,44.1,18.0,35,30.31,10.0,North,3.5,-,N/A,,Clear,360,2013-12-27 23:53:00
5:53 PM,39.0,19.0,45,30.32,9.0,Calm,Calm,-,N/A,,Clear,0,2013-12-28 00:53:00
6:53 PM,37.9,19.0,47,30.32,7.0,SSW,4.6,-,N/A,,Clear,210,2013-12-28 01:53:00
7:53 PM,35.1,19.9,54,30.32,6.0,Calm,Calm,-,N/A,,Haze,0,2013-12-28 02:53:00
8:53 PM,34.0,19.0,54,30.30,9.0,Calm,Calm,-,N/A,,Clear,0,2013-12-28 03:53:00
9:27 PM,35.1,19.0,52,30.28,2.0,Calm,Calm,-,N/A,,Haze,0,2013-12-28 04:27:00
9:37 PM,35.1,19.9,54,30.27,7.0,Calm,Calm,-,N/A,,Clear,0,2013-12-28 04:37:00
9:53 PM,34.0,19.9,56,30.29,9.0,Calm,Calm,-,N/A,,Clear,0,2013-12-28 04:53:00
10:53 PM,33.1,19.0,56,30.28,10.0,Calm,Calm,-,N/A,,Clear,0,2013-12-28 05:53:00
11:53 PM,32.0,19.9,61,30.27,9.0,Calm,Calm,-,N/A,,Clear,0,2013-12-28 06:53:00